sensor_id;sensor_type;location;lat;lon;timestamp;P1;durP1;ratioP1;P2;durP2;ratioP2
55672;SDS011;41554;45.366;20.400;2023-07-13T00:00:17;27.00;;;12.50;;
55672;SDS011;41554;45.366;20.400;2023-07-13T00:02:43;16.50;;;11.45;;
55672;SDS011;41554;45.366;20.400;2023-07-13T00:05:09;14.77;;;6.95;;
55672;SDS011;41554;45.366;20.400;2023-07-13T00:07:36;11.70;;;7.72;;
55672;SDS011;41554;45.366;20.400;2023-07-13T00:10:02;14.73;;;8.13;;
55672;SDS011;41554;45.366;20.400;2023-07-13T00:12:35;12.95;;;8.15;;
55672;SDS011;41554;45.366;20.400;2023-07-13T00:15:04;16.10;;;8.40;;
55672;SDS011;41554;45.366;20.400;2023-07-13T00:17:30;13.75;;;7.50;;
55672;SDS011;41554;45.366;20.400;2023-07-13T00:19:57;15.30;;;8.23;;
55672;SDS011;41554;45.366;20.400;2023-07-13T00:22:23;17.10;;;8.43;;
55672;SDS011;41554;45.366;20.400;2023-07-13T00:24:50;13.40;;;7.63;;
55672;SDS011;41554;45.366;20.400;2023-07-13T00:27:17;12.15;;;7.20;;
55672;SDS011;41554;45.366;20.400;2023-07-13T00:29:43;12.95;;;8.13;;
55672;SDS011;41554;45.366;20.400;2023-07-13T00:32:10;11.73;;;7.30;;
55672;SDS011;41554;45.366;20.400;2023-07-13T00:34:37;12.23;;;6.72;;
55672;SDS011;41554;45.366;20.400;2023-07-13T00:37:03;20.27;;;8.10;;
55672;SDS011;41554;45.366;20.400;2023-07-13T00:39:31;12.10;;;9.15;;
55672;SDS011;41554;45.366;20.400;2023-07-13T00:41:57;15.88;;;7.45;;
55672;SDS011;41554;45.366;20.400;2023-07-13T00:44:24;18.52;;;7.55;;
55672;SDS011;41554;45.366;20.400;2023-07-13T00:46:50;13.52;;;8.00;;
55672;SDS011;41554;45.366;20.400;2023-07-13T00:49:17;11.40;;;7.50;;
55672;SDS011;41554;45.366;20.400;2023-07-13T00:51:58;15.32;;;8.05;;
55672;SDS011;41554;45.366;20.400;2023-07-13T00:54:34;18.00;;;7.57;;
55672;SDS011;41554;45.366;20.400;2023-07-13T00:57:03;13.05;;;8.35;;
55672;SDS011;41554;45.366;20.400;2023-07-13T00:59:30;12.05;;;8.18;;
55672;SDS011;41554;45.366;20.400;2023-07-13T01:01:57;10.65;;;6.60;;
55672;SDS011;41554;45.366;20.400;2023-07-13T01:04:24;14.00;;;8.60;;
55672;SDS011;41554;45.366;20.400;2023-07-13T01:06:50;14.93;;;9.90;;
55672;SDS011;41554;45.366;20.400;2023-07-13T01:09:16;14.35;;;8.75;;
55672;SDS011;41554;45.366;20.400;2023-07-13T01:11:43;19.15;;;8.52;;
55672;SDS011;41554;45.366;20.400;2023-07-13T01:14:10;12.02;;;7.85;;
55672;SDS011;41554;45.366;20.400;2023-07-13T01:16:36;14.82;;;8.48;;
55672;SDS011;41554;45.366;20.400;2023-07-13T01:19:03;14.05;;;9.05;;
55672;SDS011;41554;45.366;20.400;2023-07-13T01:21:34;15.50;;;7.32;;
55672;SDS011;41554;45.366;20.400;2023-07-13T01:24:00;23.30;;;7.80;;
55672;SDS011;41554;45.366;20.400;2023-07-13T01:26:27;11.23;;;7.38;;
55672;SDS011;41554;45.366;20.400;2023-07-13T01:28:53;13.73;;;8.73;;
55672;SDS011;41554;45.366;20.400;2023-07-13T01:31:21;17.60;;;7.75;;
55672;SDS011;41554;45.366;20.400;2023-07-13T01:33:47;10.68;;;7.72;;
55672;SDS011;41554;45.366;20.400;2023-07-13T01:36:13;12.93;;;8.65;;
55672;SDS011;41554;45.366;20.400;2023-07-13T01:38:39;10.90;;;7.57;;
55672;SDS011;41554;45.366;20.400;2023-07-13T01:41:05;17.80;;;7.35;;
55672;SDS011;41554;45.366;20.400;2023-07-13T01:43:32;13.93;;;7.95;;
55672;SDS011;41554;45.366;20.400;2023-07-13T01:45:58;10.95;;;8.82;;
55672;SDS011;41554;45.366;20.400;2023-07-13T01:48:24;20.20;;;9.43;;
55672;SDS011;41554;45.366;20.400;2023-07-13T01:50:50;14.60;;;7.25;;
55672;SDS011;41554;45.366;20.400;2023-07-13T01:53:16;15.60;;;8.05;;
55672;SDS011;41554;45.366;20.400;2023-07-13T01:55:42;11.48;;;7.50;;
55672;SDS011;41554;45.366;20.400;2023-07-13T01:58:08;15.13;;;9.35;;
55672;SDS011;41554;45.366;20.400;2023-07-13T02:00:34;11.75;;;8.10;;
55672;SDS011;41554;45.366;20.400;2023-07-13T02:03:00;13.55;;;9.18;;
55672;SDS011;41554;45.366;20.400;2023-07-13T02:05:26;14.70;;;9.02;;
55672;SDS011;41554;45.366;20.400;2023-07-13T02:07:52;19.15;;;8.90;;
55672;SDS011;41554;45.366;20.400;2023-07-13T02:10:18;21.77;;;10.73;;
55672;SDS011;41554;45.366;20.400;2023-07-13T02:12:44;19.70;;;11.80;;
55672;SDS011;41554;45.366;20.400;2023-07-13T02:15:10;21.40;;;13.63;;
55672;SDS011;41554;45.366;20.400;2023-07-13T02:17:36;30.70;;;15.77;;
55672;SDS011;41554;45.366;20.400;2023-07-13T02:20:03;30.45;;;19.42;;
55672;SDS011;41554;45.366;20.400;2023-07-13T02:22:30;30.30;;;18.83;;
55672;SDS011;41554;45.366;20.400;2023-07-13T02:24:56;38.13;;;27.50;;
55672;SDS011;41554;45.366;20.400;2023-07-13T02:27:22;39.47;;;27.33;;
55672;SDS011;41554;45.366;20.400;2023-07-13T02:29:48;33.35;;;23.83;;
55672;SDS011;41554;45.366;20.400;2023-07-13T02:32:16;29.55;;;22.50;;
55672;SDS011;41554;45.366;20.400;2023-07-13T02:34:42;29.13;;;22.58;;
55672;SDS011;41554;45.366;20.400;2023-07-13T02:37:08;31.55;;;21.67;;
55672;SDS011;41554;45.366;20.400;2023-07-13T02:39:34;29.63;;;20.63;;
55672;SDS011;41554;45.366;20.400;2023-07-13T02:42:01;32.80;;;21.75;;
55672;SDS011;41554;45.366;20.400;2023-07-13T02:44:27;33.72;;;22.55;;
55672;SDS011;41554;45.366;20.400;2023-07-13T02:46:53;30.05;;;22.50;;
55672;SDS011;41554;45.366;20.400;2023-07-13T02:49:19;23.80;;;19.88;;
55672;SDS011;41554;45.366;20.400;2023-07-13T02:51:45;30.02;;;23.20;;
55672;SDS011;41554;45.366;20.400;2023-07-13T02:54:11;36.17;;;22.35;;
55672;SDS011;41554;45.366;20.400;2023-07-13T02:56:38;31.42;;;22.20;;
55672;SDS011;41554;45.366;20.400;2023-07-13T02:59:04;29.80;;;20.70;;
55672;SDS011;41554;45.366;20.400;2023-07-13T03:01:30;35.00;;;18.92;;
55672;SDS011;41554;45.366;20.400;2023-07-13T03:04:00;27.92;;;17.77;;
55672;SDS011;41554;45.366;20.400;2023-07-13T03:06:26;24.20;;;16.83;;
55672;SDS011;41554;45.366;20.400;2023-07-13T03:08:55;22.43;;;14.90;;
55672;SDS011;41554;45.366;20.400;2023-07-13T03:11:21;22.75;;;13.13;;
55672;SDS011;41554;45.366;20.400;2023-07-13T03:13:47;18.42;;;11.52;;
55672;SDS011;41554;45.366;20.400;2023-07-13T03:16:13;15.43;;;9.85;;
55672;SDS011;41554;45.366;20.400;2023-07-13T03:18:40;11.68;;;8.27;;
55672;SDS011;41554;45.366;20.400;2023-07-13T03:21:07;15.60;;;8.40;;
55672;SDS011;41554;45.366;20.400;2023-07-13T03:23:33;11.68;;;8.85;;
55672;SDS011;41554;45.366;20.400;2023-07-13T03:26:06;15.98;;;7.78;;
55672;SDS011;41554;45.366;20.400;2023-07-13T03:28:32;12.95;;;8.80;;
55672;SDS011;41554;45.366;20.400;2023-07-13T03:31:03;21.77;;;10.60;;
55672;SDS011;41554;45.366;20.400;2023-07-13T03:33:29;23.00;;;8.98;;
55672;SDS011;41554;45.366;20.400;2023-07-13T03:35:56;10.32;;;8.23;;
55672;SDS011;41554;45.366;20.400;2023-07-13T03:38:22;12.80;;;9.13;;
55672;SDS011;41554;45.366;20.400;2023-07-13T03:40:48;10.98;;;8.43;;
55672;SDS011;41554;45.366;20.400;2023-07-13T03:43:14;18.30;;;9.07;;
55672;SDS011;41554;45.366;20.400;2023-07-13T03:45:40;20.50;;;9.45;;
55672;SDS011;41554;45.366;20.400;2023-07-13T03:48:06;16.88;;;8.77;;
55672;SDS011;41554;45.366;20.400;2023-07-13T03:50:33;13.68;;;8.98;;
55672;SDS011;41554;45.366;20.400;2023-07-13T03:52:59;15.35;;;10.35;;
55672;SDS011;41554;45.366;20.400;2023-07-13T03:55:25;32.35;;;20.73;;
55672;SDS011;41554;45.366;20.400;2023-07-13T03:57:53;49.28;;;34.35;;
55672;SDS011;41554;45.366;20.400;2023-07-13T04:00:20;56.03;;;40.75;;
55672;SDS011;41554;45.366;20.400;2023-07-13T04:02:46;55.92;;;45.92;;
55672;SDS011;41554;45.366;20.400;2023-07-13T04:05:14;61.47;;;51.67;;
55672;SDS011;41554;45.366;20.400;2023-07-13T04:07:40;67.10;;;52.53;;
55672;SDS011;41554;45.366;20.400;2023-07-13T04:10:06;41.78;;;32.08;;
55672;SDS011;41554;45.366;20.400;2023-07-13T04:12:32;24.50;;;17.33;;
55672;SDS011;41554;45.366;20.400;2023-07-13T04:14:58;24.67;;;11.15;;
55672;SDS011;41554;45.366;20.400;2023-07-13T04:17:25;20.05;;;10.02;;
55672;SDS011;41554;45.366;20.400;2023-07-13T04:19:51;17.52;;;10.15;;
55672;SDS011;41554;45.366;20.400;2023-07-13T04:22:17;17.05;;;10.82;;
55672;SDS011;41554;45.366;20.400;2023-07-13T04:24:43;20.27;;;10.65;;
55672;SDS011;41554;45.366;20.400;2023-07-13T04:27:09;19.98;;;11.07;;
55672;SDS011;41554;45.366;20.400;2023-07-13T04:29:35;20.17;;;9.30;;
55672;SDS011;41554;45.366;20.400;2023-07-13T04:32:01;29.02;;;24.23;;
55672;SDS011;41554;45.366;20.400;2023-07-13T04:34:27;33.33;;;25.70;;
55672;SDS011;41554;45.366;20.400;2023-07-13T04:36:53;56.08;;;35.15;;
55672;SDS011;41554;45.366;20.400;2023-07-13T04:39:19;44.67;;;35.80;;
55672;SDS011;41554;45.366;20.400;2023-07-13T04:41:45;64.85;;;37.63;;
55672;SDS011;41554;45.366;20.400;2023-07-13T04:44:11;56.45;;;49.08;;
55672;SDS011;41554;45.366;20.400;2023-07-13T04:46:37;70.72;;;49.30;;
55672;SDS011;41554;45.366;20.400;2023-07-13T04:49:03;57.03;;;35.58;;
55672;SDS011;41554;45.366;20.400;2023-07-13T04:51:29;39.05;;;33.90;;
55672;SDS011;41554;45.366;20.400;2023-07-13T04:53:56;43.15;;;28.25;;
55672;SDS011;41554;45.366;20.400;2023-07-13T04:56:22;22.55;;;20.25;;
55672;SDS011;41554;45.366;20.400;2023-07-13T04:58:48;18.20;;;13.05;;
55672;SDS011;41554;45.366;20.400;2023-07-13T05:01:14;16.45;;;12.23;;
55672;SDS011;41554;45.366;20.400;2023-07-13T05:03:40;17.23;;;11.35;;
55672;SDS011;41554;45.366;20.400;2023-07-13T05:06:06;21.92;;;11.80;;
55672;SDS011;41554;45.366;20.400;2023-07-13T05:08:35;15.43;;;12.53;;
55672;SDS011;41554;45.366;20.400;2023-07-13T05:11:01;24.73;;;14.65;;
55672;SDS011;41554;45.366;20.400;2023-07-13T05:13:27;17.60;;;12.68;;
55672;SDS011;41554;45.366;20.400;2023-07-13T05:16:01;15.10;;;10.82;;
55672;SDS011;41554;45.366;20.400;2023-07-13T05:18:27;18.00;;;11.70;;
55672;SDS011;41554;45.366;20.400;2023-07-13T05:21:12;18.25;;;13.65;;
55672;SDS011;41554;45.366;20.400;2023-07-13T05:23:38;23.58;;;12.98;;
55672;SDS011;41554;45.366;20.400;2023-07-13T05:26:06;25.30;;;13.83;;
55672;SDS011;41554;45.366;20.400;2023-07-13T05:28:32;24.58;;;12.93;;
55672;SDS011;41554;45.366;20.400;2023-07-13T05:30:59;32.28;;;13.02;;
55672;SDS011;41554;45.366;20.400;2023-07-13T05:33:25;20.77;;;13.77;;
55672;SDS011;41554;45.366;20.400;2023-07-13T05:35:51;19.33;;;12.90;;
55672;SDS011;41554;45.366;20.400;2023-07-13T05:38:18;17.88;;;13.82;;
55672;SDS011;41554;45.366;20.400;2023-07-13T05:40:44;22.55;;;14.13;;
55672;SDS011;41554;45.366;20.400;2023-07-13T05:43:10;24.23;;;17.10;;
55672;SDS011;41554;45.366;20.400;2023-07-13T05:45:37;21.20;;;19.00;;
55672;SDS011;41554;45.366;20.400;2023-07-13T05:48:03;26.35;;;13.32;;
55672;SDS011;41554;45.366;20.400;2023-07-13T05:50:29;14.88;;;11.43;;
55672;SDS011;41554;45.366;20.400;2023-07-13T05:52:55;26.40;;;12.52;;
55672;SDS011;41554;45.366;20.400;2023-07-13T05:55:21;19.88;;;12.23;;
55672;SDS011;41554;45.366;20.400;2023-07-13T05:57:47;17.95;;;11.95;;
55672;SDS011;41554;45.366;20.400;2023-07-13T06:00:14;28.58;;;12.82;;
55672;SDS011;41554;45.366;20.400;2023-07-13T06:02:40;22.65;;;12.15;;
55672;SDS011;41554;45.366;20.400;2023-07-13T06:05:06;12.43;;;11.15;;
55672;SDS011;41554;45.366;20.400;2023-07-13T06:07:32;21.23;;;13.52;;
55672;SDS011;41554;45.366;20.400;2023-07-13T06:09:58;18.30;;;12.65;;
55672;SDS011;41554;45.366;20.400;2023-07-13T06:12:24;19.95;;;12.45;;
55672;SDS011;41554;45.366;20.400;2023-07-13T06:14:50;22.40;;;13.18;;
55672;SDS011;41554;45.366;20.400;2023-07-13T06:17:16;19.50;;;11.50;;
55672;SDS011;41554;45.366;20.400;2023-07-13T06:19:43;22.60;;;10.80;;
55672;SDS011;41554;45.366;20.400;2023-07-13T06:22:09;16.13;;;10.40;;
55672;SDS011;41554;45.366;20.400;2023-07-13T06:24:35;13.57;;;10.45;;
55672;SDS011;41554;45.366;20.400;2023-07-13T06:27:01;15.02;;;10.18;;
55672;SDS011;41554;45.366;20.400;2023-07-13T06:29:26;22.77;;;11.63;;
55672;SDS011;41554;45.366;20.400;2023-07-13T06:31:53;22.00;;;10.40;;
55672;SDS011;41554;45.366;20.400;2023-07-13T06:34:18;32.42;;;11.82;;
55672;SDS011;41554;45.366;20.400;2023-07-13T06:36:44;14.25;;;7.32;;
55672;SDS011;41554;45.366;20.400;2023-07-13T06:39:09;15.93;;;9.88;;
55672;SDS011;41554;45.366;20.400;2023-07-13T06:41:35;9.82;;;7.95;;
55672;SDS011;41554;45.366;20.400;2023-07-13T06:44:03;13.13;;;8.70;;
55672;SDS011;41554;45.366;20.400;2023-07-13T06:46:29;14.73;;;9.80;;
55672;SDS011;41554;45.366;20.400;2023-07-13T06:48:55;17.80;;;9.60;;
55672;SDS011;41554;45.366;20.400;2023-07-13T06:51:21;17.40;;;10.93;;
55672;SDS011;41554;45.366;20.400;2023-07-13T06:53:47;23.83;;;14.85;;
55672;SDS011;41554;45.366;20.400;2023-07-13T06:56:15;24.73;;;13.18;;
55672;SDS011;41554;45.366;20.400;2023-07-13T06:58:41;22.42;;;15.05;;
55672;SDS011;41554;45.366;20.400;2023-07-13T07:01:07;35.35;;;17.40;;
55672;SDS011;41554;45.366;20.400;2023-07-13T07:03:33;22.92;;;15.13;;
55672;SDS011;41554;45.366;20.400;2023-07-13T07:06:06;29.00;;;16.55;;
55672;SDS011;41554;45.366;20.400;2023-07-13T07:08:35;25.25;;;14.18;;
55672;SDS011;41554;45.366;20.400;2023-07-13T07:11:01;27.75;;;15.88;;
55672;SDS011;41554;45.366;20.400;2023-07-13T07:13:27;22.90;;;14.73;;
55672;SDS011;41554;45.366;20.400;2023-07-13T07:15:53;27.35;;;12.35;;
55672;SDS011;41554;45.366;20.400;2023-07-13T07:18:19;19.70;;;9.43;;
55672;SDS011;41554;45.366;20.400;2023-07-13T07:20:44;23.10;;;9.20;;
55672;SDS011;41554;45.366;20.400;2023-07-13T07:23:10;15.85;;;11.00;;
55672;SDS011;41554;45.366;20.400;2023-07-13T07:25:36;14.88;;;8.68;;
55672;SDS011;41554;45.366;20.400;2023-07-13T07:28:06;17.75;;;10.30;;
55672;SDS011;41554;45.366;20.400;2023-07-13T07:30:33;22.17;;;8.23;;
55672;SDS011;41554;45.366;20.400;2023-07-13T07:32:58;14.93;;;7.05;;
55672;SDS011;41554;45.366;20.400;2023-07-13T07:35:24;11.85;;;8.48;;
55672;SDS011;41554;45.366;20.400;2023-07-13T07:37:50;18.63;;;8.13;;
55672;SDS011;41554;45.366;20.400;2023-07-13T07:40:15;14.18;;;8.07;;
55672;SDS011;41554;45.366;20.400;2023-07-13T07:42:41;13.57;;;7.18;;
55672;SDS011;41554;45.366;20.400;2023-07-13T07:45:07;15.60;;;8.73;;
55672;SDS011;41554;45.366;20.400;2023-07-13T07:47:33;15.25;;;7.65;;
55672;SDS011;41554;45.366;20.400;2023-07-13T07:49:59;15.95;;;6.97;;
55672;SDS011;41554;45.366;20.400;2023-07-13T07:52:25;13.30;;;8.05;;
55672;SDS011;41554;45.366;20.400;2023-07-13T07:54:50;13.70;;;6.78;;
55672;SDS011;41554;45.366;20.400;2023-07-13T07:57:16;13.55;;;6.85;;
55672;SDS011;41554;45.366;20.400;2023-07-13T07:59:42;17.33;;;7.60;;
55672;SDS011;41554;45.366;20.400;2023-07-13T08:02:08;14.45;;;8.25;;
55672;SDS011;41554;45.366;20.400;2023-07-13T08:04:35;16.00;;;8.63;;
55672;SDS011;41554;45.366;20.400;2023-07-13T08:07:01;22.40;;;7.70;;
55672;SDS011;41554;45.366;20.400;2023-07-13T08:09:28;13.70;;;7.22;;
55672;SDS011;41554;45.366;20.400;2023-07-13T08:11:54;26.30;;;7.93;;
55672;SDS011;41554;45.366;20.400;2023-07-13T08:14:20;19.25;;;8.30;;
55672;SDS011;41554;45.366;20.400;2023-07-13T08:16:45;11.73;;;8.68;;
55672;SDS011;41554;45.366;20.400;2023-07-13T08:19:11;18.35;;;8.35;;
55672;SDS011;41554;45.366;20.400;2023-07-13T08:21:37;20.90;;;8.95;;
55672;SDS011;41554;45.366;20.400;2023-07-13T08:24:03;15.95;;;9.57;;
55672;SDS011;41554;45.366;20.400;2023-07-13T08:26:29;11.25;;;7.65;;
55672;SDS011;41554;45.366;20.400;2023-07-13T08:28:55;21.45;;;9.93;;
55672;SDS011;41554;45.366;20.400;2023-07-13T08:31:21;19.65;;;8.98;;
55672;SDS011;41554;45.366;20.400;2023-07-13T08:33:47;19.23;;;8.80;;
55672;SDS011;41554;45.366;20.400;2023-07-13T08:36:13;15.73;;;8.07;;
55672;SDS011;41554;45.366;20.400;2023-07-13T08:38:39;17.13;;;9.13;;
55672;SDS011;41554;45.366;20.400;2023-07-13T08:41:16;13.80;;;8.93;;
55672;SDS011;41554;45.366;20.400;2023-07-13T08:43:44;13.07;;;8.43;;
55672;SDS011;41554;45.366;20.400;2023-07-13T08:46:24;12.13;;;8.15;;
55672;SDS011;41554;45.366;20.400;2023-07-13T08:49:24;15.70;;;8.63;;
55672;SDS011;41554;45.366;20.400;2023-07-13T08:51:45;12.57;;;7.05;;
55672;SDS011;41554;45.366;20.400;2023-07-13T08:54:27;21.63;;;8.15;;
55672;SDS011;41554;45.366;20.400;2023-07-13T08:56:54;17.55;;;8.02;;
55672;SDS011;41554;45.366;20.400;2023-07-13T08:59:24;13.57;;;8.27;;
55672;SDS011;41554;45.366;20.400;2023-07-13T09:04:21;14.77;;;7.50;;
55672;SDS011;41554;45.366;20.400;2023-07-13T09:09:25;27.48;;;9.00;;
55672;SDS011;41554;45.366;20.400;2023-07-13T09:12:03;19.35;;;8.85;;
55672;SDS011;41554;45.366;20.400;2023-07-13T09:14:36;10.65;;;7.65;;
55672;SDS011;41554;45.366;20.400;2023-07-13T09:17:08;13.50;;;6.65;;
55672;SDS011;41554;45.366;20.400;2023-07-13T09:19:38;16.15;;;8.45;;
55672;SDS011;41554;45.366;20.400;2023-07-13T09:22:07;9.68;;;6.70;;
55672;SDS011;41554;45.366;20.400;2023-07-13T09:27:03;9.40;;;6.30;;
55672;SDS011;41554;45.366;20.400;2023-07-13T09:29:35;11.13;;;7.72;;
55672;SDS011;41554;45.366;20.400;2023-07-13T09:32:04;11.70;;;7.32;;
55672;SDS011;41554;45.366;20.400;2023-07-13T09:34:32;11.77;;;7.65;;
55672;SDS011;41554;45.366;20.400;2023-07-13T09:36:58;14.40;;;7.25;;
55672;SDS011;41554;45.366;20.400;2023-07-13T09:41:53;10.00;;;6.90;;
55672;SDS011;41554;45.366;20.400;2023-07-13T09:44:33;12.70;;;5.63;;
55672;SDS011;41554;45.366;20.400;2023-07-13T09:47:00;8.55;;;6.72;;
55672;SDS011;41554;45.366;20.400;2023-07-13T09:49:28;12.07;;;7.28;;
55672;SDS011;41554;45.366;20.400;2023-07-13T09:51:59;17.40;;;6.95;;
55672;SDS011;41554;45.366;20.400;2023-07-13T09:54:26;11.20;;;7.32;;
55672;SDS011;41554;45.366;20.400;2023-07-13T09:56:55;13.50;;;7.25;;
55672;SDS011;41554;45.366;20.400;2023-07-13T09:59:22;9.27;;;6.55;;
55672;SDS011;41554;45.366;20.400;2023-07-13T10:01:49;24.17;;;8.20;;
55672;SDS011;41554;45.366;20.400;2023-07-13T10:04:18;24.27;;;8.82;;
55672;SDS011;41554;45.366;20.400;2023-07-13T10:06:45;11.02;;;6.75;;
55672;SDS011;41554;45.366;20.400;2023-07-13T10:09:15;19.65;;;7.50;;
55672;SDS011;41554;45.366;20.400;2023-07-13T10:11:41;11.45;;;7.28;;
55672;SDS011;41554;45.366;20.400;2023-07-13T10:16:35;11.73;;;7.03;;
55672;SDS011;41554;45.366;20.400;2023-07-13T10:19:02;17.20;;;7.63;;
55672;SDS011;41554;45.366;20.400;2023-07-13T10:21:35;13.48;;;5.80;;
55672;SDS011;41554;45.366;20.400;2023-07-13T10:27:10;9.88;;;6.65;;
55672;SDS011;41554;45.366;20.400;2023-07-13T10:29:34;14.50;;;7.35;;
55672;SDS011;41554;45.366;20.400;2023-07-13T10:32:01;17.63;;;6.45;;
55672;SDS011;41554;45.366;20.400;2023-07-13T10:34:27;14.40;;;7.00;;
55672;SDS011;41554;45.366;20.400;2023-07-13T10:36:56;29.30;;;8.97;;
55672;SDS011;41554;45.366;20.400;2023-07-13T10:39:23;8.60;;;5.78;;
55672;SDS011;41554;45.366;20.400;2023-07-13T10:41:52;15.50;;;8.70;;
55672;SDS011;41554;45.366;20.400;2023-07-13T10:44:21;11.20;;;6.95;;
55672;SDS011;41554;45.366;20.400;2023-07-13T10:46:50;8.77;;;6.85;;
55672;SDS011;41554;45.366;20.400;2023-07-13T10:49:17;17.92;;;6.72;;
55672;SDS011;41554;45.366;20.400;2023-07-13T10:51:44;19.52;;;7.35;;
55672;SDS011;41554;45.366;20.400;2023-07-13T10:56:41;19.20;;;6.68;;
55672;SDS011;41554;45.366;20.400;2023-07-13T11:01:46;25.23;;;8.05;;
55672;SDS011;41554;45.366;20.400;2023-07-13T11:04:14;13.30;;;6.90;;
55672;SDS011;41554;45.366;20.400;2023-07-13T11:06:41;15.45;;;7.57;;
55672;SDS011;41554;45.366;20.400;2023-07-13T11:09:19;14.65;;;6.55;;
55672;SDS011;41554;45.366;20.400;2023-07-13T11:11:45;13.55;;;7.10;;
55672;SDS011;41554;45.366;20.400;2023-07-13T11:15:00;8.85;;;6.07;;
55672;SDS011;41554;45.366;20.400;2023-07-13T11:16:58;14.95;;;7.82;;
55672;SDS011;41554;45.366;20.400;2023-07-13T11:19:26;15.48;;;6.32;;
55672;SDS011;41554;45.366;20.400;2023-07-13T11:27:37;12.50;;;5.90;;
55672;SDS011;41554;45.366;20.400;2023-07-13T11:30:24;29.25;;;7.38;;
55672;SDS011;41554;45.366;20.400;2023-07-13T11:32:51;16.80;;;7.65;;
55672;SDS011;41554;45.366;20.400;2023-07-13T11:35:31;12.32;;;5.80;;
55672;SDS011;41554;45.366;20.400;2023-07-13T11:38:00;11.30;;;6.35;;
55672;SDS011;41554;45.366;20.400;2023-07-13T11:40:26;10.18;;;7.07;;
55672;SDS011;41554;45.366;20.400;2023-07-13T11:43:00;20.50;;;7.28;;
55672;SDS011;41554;45.366;20.400;2023-07-13T11:45:28;22.92;;;6.55;;
55672;SDS011;41554;45.366;20.400;2023-07-13T11:47:56;16.48;;;7.53;;
55672;SDS011;41554;45.366;20.400;2023-07-13T11:50:25;19.00;;;8.70;;
55672;SDS011;41554;45.366;20.400;2023-07-13T11:52:51;9.25;;;5.93;;
55672;SDS011;41554;45.366;20.400;2023-07-13T11:55:21;10.32;;;6.30;;
55672;SDS011;41554;45.366;20.400;2023-07-13T11:57:50;19.55;;;8.52;;
55672;SDS011;41554;45.366;20.400;2023-07-13T12:00:18;12.75;;;7.10;;
55672;SDS011;41554;45.366;20.400;2023-07-13T12:02:46;8.60;;;6.22;;
55672;SDS011;41554;45.366;20.400;2023-07-13T12:05:15;17.20;;;7.15;;
55672;SDS011;41554;45.366;20.400;2023-07-13T12:07:43;24.15;;;7.43;;
55672;SDS011;41554;45.366;20.400;2023-07-13T12:12:36;11.05;;;7.60;;
55672;SDS011;41554;45.366;20.400;2023-07-13T12:15:05;20.88;;;7.15;;
55672;SDS011;41554;45.366;20.400;2023-07-13T12:17:33;9.30;;;5.07;;
55672;SDS011;41554;45.366;20.400;2023-07-13T12:20:00;10.97;;;6.30;;
55672;SDS011;41554;45.366;20.400;2023-07-13T12:22:26;9.73;;;6.63;;
55672;SDS011;41554;45.366;20.400;2023-07-13T12:24:53;20.58;;;6.18;;
55672;SDS011;41554;45.366;20.400;2023-07-13T12:27:25;10.07;;;5.75;;
55672;SDS011;41554;45.366;20.400;2023-07-13T12:29:59;10.55;;;7.03;;
55672;SDS011;41554;45.366;20.400;2023-07-13T12:32:25;16.95;;;6.22;;
55672;SDS011;41554;45.366;20.400;2023-07-13T12:34:53;12.35;;;6.60;;
55672;SDS011;41554;45.366;20.400;2023-07-13T12:37:19;9.57;;;6.68;;
55672;SDS011;41554;45.366;20.400;2023-07-13T12:39:46;12.27;;;6.47;;
55672;SDS011;41554;45.366;20.400;2023-07-13T12:42:46;12.50;;;5.78;;
55672;SDS011;41554;45.366;20.400;2023-07-13T12:45:17;9.65;;;5.57;;
55672;SDS011;41554;45.366;20.400;2023-07-13T12:47:47;9.70;;;5.47;;
55672;SDS011;41554;45.366;20.400;2023-07-13T12:50:21;18.95;;;7.32;;
55672;SDS011;41554;45.366;20.400;2023-07-13T12:52:51;16.73;;;5.47;;
55672;SDS011;41554;45.366;20.400;2023-07-13T12:55:18;10.60;;;5.45;;
55672;SDS011;41554;45.366;20.400;2023-07-13T13:00:19;8.07;;;6.13;;
55672;SDS011;41554;45.366;20.400;2023-07-13T13:02:48;10.30;;;6.32;;
55672;SDS011;41554;45.366;20.400;2023-07-13T13:05:15;13.02;;;5.22;;
55672;SDS011;41554;45.366;20.400;2023-07-13T13:07:41;11.52;;;6.55;;
55672;SDS011;41554;45.366;20.400;2023-07-13T13:10:13;13.85;;;6.50;;
55672;SDS011;41554;45.366;20.400;2023-07-13T13:12:40;6.97;;;5.63;;
55672;SDS011;41554;45.366;20.400;2023-07-13T13:15:08;13.52;;;5.93;;
55672;SDS011;41554;45.366;20.400;2023-07-13T13:17:34;26.63;;;7.30;;
55672;SDS011;41554;45.366;20.400;2023-07-13T13:20:01;12.68;;;7.07;;
55672;SDS011;41554;45.366;20.400;2023-07-13T13:22:27;11.40;;;7.00;;
55672;SDS011;41554;45.366;20.400;2023-07-13T13:24:53;12.48;;;6.30;;
55672;SDS011;41554;45.366;20.400;2023-07-13T13:27:20;8.40;;;5.55;;
55672;SDS011;41554;45.366;20.400;2023-07-13T13:29:48;13.73;;;5.47;;
55672;SDS011;41554;45.366;20.400;2023-07-13T13:34:44;9.00;;;6.05;;
55672;SDS011;41554;45.366;20.400;2023-07-13T13:37:23;15.23;;;6.45;;
55672;SDS011;41554;45.366;20.400;2023-07-13T13:39:51;7.38;;;5.05;;
55672;SDS011;41554;45.366;20.400;2023-07-13T13:42:18;17.63;;;7.68;;
55672;SDS011;41554;45.366;20.400;2023-07-13T13:44:47;9.07;;;4.63;;
55672;SDS011;41554;45.366;20.400;2023-07-13T13:47:20;17.40;;;6.75;;
55672;SDS011;41554;45.366;20.400;2023-07-13T13:49:47;11.57;;;5.50;;
55672;SDS011;41554;45.366;20.400;2023-07-13T13:52:13;10.20;;;5.05;;
55672;SDS011;41554;45.366;20.400;2023-07-13T13:54:40;12.43;;;5.97;;
55672;SDS011;41554;45.366;20.400;2023-07-13T13:57:07;14.30;;;5.20;;
55672;SDS011;41554;45.366;20.400;2023-07-13T13:59:33;8.20;;;4.88;;
55672;SDS011;41554;45.366;20.400;2023-07-13T14:02:11;8.32;;;5.53;;
55672;SDS011;41554;45.366;20.400;2023-07-13T14:04:45;15.65;;;5.85;;
55672;SDS011;41554;45.366;20.400;2023-07-13T14:07:12;10.10;;;4.97;;
55672;SDS011;41554;45.366;20.400;2023-07-13T14:09:38;9.60;;;5.28;;
55672;SDS011;41554;45.366;20.400;2023-07-13T14:12:04;16.05;;;4.82;;
55672;SDS011;41554;45.366;20.400;2023-07-13T14:14:32;12.05;;;6.40;;
55672;SDS011;41554;45.366;20.400;2023-07-13T14:16:58;7.85;;;4.40;;
55672;SDS011;41554;45.366;20.400;2023-07-13T14:19:25;11.48;;;5.47;;
55672;SDS011;41554;45.366;20.400;2023-07-13T14:21:51;9.65;;;4.10;;
55672;SDS011;41554;45.366;20.400;2023-07-13T14:24:18;9.65;;;5.53;;
55672;SDS011;41554;45.366;20.400;2023-07-13T14:26:45;14.52;;;6.30;;
55672;SDS011;41554;45.366;20.400;2023-07-13T14:29:13;10.68;;;5.63;;
55672;SDS011;41554;45.366;20.400;2023-07-13T14:31:39;13.18;;;5.30;;
55672;SDS011;41554;45.366;20.400;2023-07-13T14:34:07;5.80;;;4.05;;
55672;SDS011;41554;45.366;20.400;2023-07-13T14:36:34;16.00;;;4.90;;
55672;SDS011;41554;45.366;20.400;2023-07-13T14:39:10;9.02;;;5.78;;
55672;SDS011;41554;45.366;20.400;2023-07-13T14:41:37;10.43;;;4.93;;
55672;SDS011;41554;45.366;20.400;2023-07-13T14:44:16;7.47;;;4.43;;
55672;SDS011;41554;45.366;20.400;2023-07-13T14:46:44;11.93;;;5.90;;
55672;SDS011;41554;45.366;20.400;2023-07-13T14:49:28;11.05;;;4.25;;
55672;SDS011;41554;45.366;20.400;2023-07-13T14:51:56;14.73;;;5.25;;
55672;SDS011;41554;45.366;20.400;2023-07-13T14:54:23;16.65;;;5.63;;